Time;durP1;ratioP1;P1;durP2;ratioP2;P2;SDS_P1;SDS_P2;PMS_P1;PMS_P2;Temp;Humidity;BMP_temperature;BMP_pressure;BME280_temperature;BME280_humidity;BME280_pressure;Samples;Min_cycle;Max_cycle;Signal;HPM_P1;HPM_P2
2021/11/02 00:02:43;;;;;;;5.43;2.42;;;14.20;65.20;;;;;;6200589;28;20121;-70
2021/11/02 00:05:46;;;;;;;3.88;1.75;;;14.20;65.30;;;;;;6200613;28;20030;-70
2021/11/02 00:08:47;;;;;;;4.20;1.85;;;14.20;65.40;;;;;;6200504;28;20133;-70
2021/11/02 00:11:48;;;;;;;2.83;1.50;;;14.10;65.40;;;;;;6201518;28;20022;-70
2021/11/02 00:14:49;;;;;;;3.05;1.85;;;14.20;65.40;;;;;;6201535;28;20463;-70
2021/11/02 00:17:53;;;;;;;5.72;1.83;;;14.20;65.40;;;;;;6201065;28;20019;-70
2021/11/02 00:21:00;;;;;;;3.55;2.10;;;14.20;65.20;;;;;;6199849;28;20035;-69
2021/11/02 00:24:13;;;;;;;4.60;2.13;;;14.20;65.20;;;;;;6200680;28;20070;-70
2021/11/02 00:27:14;;;;;;;2.95;1.58;;;14.30;65.10;;;;;;6202186;28;20041;-69
2021/11/02 00:30:17;;;;;;;2.78;1.65;;;14.30;65.00;;;;;;6200601;28;20030;-69
2021/11/02 00:33:17;;;;;;;2.80;1.63;;;14.30;64.70;;;;;;6216685;28;20026;-70
2021/11/02 00:36:18;;;;;;;4.82;1.75;;;14.40;64.40;;;;;;6201257;28;20034;-71
2021/11/02 00:39:19;;;;;;;5.28;1.48;;;14.40;64.10;;;;;;6200012;28;20053;-70
2021/11/02 00:42:41;;;;;;;2.22;1.27;;;14.50;63.80;;;;;;6200964;28;20430;-69
2021/11/02 00:45:44;;;;;;;4.95;1.50;;;14.40;63.50;;;;;;6201384;28;20042;-69
2021/11/02 00:48:45;;;;;;;2.30;1.33;;;14.40;63.30;;;;;;6199560;28;20039;-69
2021/11/02 00:51:48;;;;;;;5.60;1.52;;;14.40;63.10;;;;;;6216429;28;20037;-70
2021/11/02 00:54:49;;;;;;;3.65;1.38;;;14.40;63.10;;;;;;6200194;28;20065;-69
2021/11/02 00:57:50;;;;;;;2.28;1.35;;;14.40;63.10;;;;;;6199958;28;20423;-70
2021/11/02 01:00:52;;;;;;;2.33;1.27;;;14.40;63.10;;;;;;6216256;28;20049;-70
2021/11/02 01:03:53;;;;;;;2.47;1.45;;;14.40;63.00;;;;;;6200537;28;20034;-69
2021/11/02 01:06:55;;;;;;;2.67;1.30;;;14.40;63.00;;;;;;6199489;28;20165;-69
2021/11/02 01:09:56;;;;;;;4.18;1.50;;;14.40;63.70;;;;;;6199398;28;20031;-70
2021/11/02 01:12:57;;;;;;;6.05;1.27;;;14.40;62.80;;;;;;6199932;28;20026;-71
2021/11/02 01:15:59;;;;;;;3.00;1.83;;;14.40;62.80;;;;;;6200785;28;20026;-70
2021/11/02 01:19:00;;;;;;;8.13;1.75;;;14.40;63.50;;;;;;6200425;28;20023;-70
2021/11/02 01:22:03;;;;;;;3.13;1.30;;;14.50;62.80;;;;;;6197639;28;20034;-70
2021/11/02 01:25:05;;;;;;;9.18;2.50;;;14.50;62.70;;;;;;6199679;28;20045;-70
2021/11/02 01:28:07;;;;;;;4.70;2.90;;;14.50;62.60;;;;;;6199691;28;20031;-70
2021/11/02 01:31:14;;;;;;;4.60;2.47;;;14.50;62.90;;;;;;6202464;28;20069;-70
2021/11/02 01:34:14;;;;;;;4.82;2.83;;;14.50;63.10;;;;;;6203903;28;20097;-70
2021/11/02 01:37:16;;;;;;;5.40;2.15;;;14.40;63.40;;;;;;6203814;28;20084;-70
2021/11/02 01:40:18;;;;;;;6.97;2.15;;;14.40;63.50;;;;;;6203680;28;20054;-70
2021/11/02 01:43:20;;;;;;;12.15;2.38;;;14.30;63.70;;;;;;6203602;28;20037;-69
2021/11/02 01:46:27;;;;;;;3.88;1.95;;;14.40;63.80;;;;;;6203630;28;20034;-70
2021/11/02 01:49:30;;;;;;;3.65;2.10;;;14.40;63.70;;;;;;6203084;28;20031;-70
2021/11/02 01:52:33;;;;;;;3.45;1.98;;;14.40;63.50;;;;;;6202608;28;20030;-70
2021/11/02 01:55:34;;;;;;;3.42;2.17;;;14.40;63.40;;;;;;6195375;28;20451;-70
2021/11/02 01:58:35;;;;;;;4.70;1.77;;;14.40;63.30;;;;;;6195417;28;20031;-70
2021/11/02 02:01:40;;;;;;;4.47;1.55;;;14.40;62.90;;;;;;6180445;28;20027;-70
2021/11/02 02:04:53;;;;;;;2.05;1.15;;;14.40;62.90;;;;;;6203091;28;20471;-69
2021/11/02 02:08:24;;;;;;;2.42;1.15;;;14.40;62.90;;;;;;6203209;28;20030;-69
2021/11/02 02:11:32;;;;;;;1.98;1.20;;;14.40;62.60;;;;;;6203193;28;20030;-69
2021/11/02 02:14:47;;;;;;;1.27;1.02;;;14.40;62.50;;;;;;6187082;28;20050;-69
2021/11/02 02:18:09;;;;;;;3.00;1.48;;;14.40;62.30;;;;;;6203307;28;20030;-69
2021/11/02 02:21:33;;;;;;;3.55;1.00;;;14.40;62.40;;;;;;6203550;28;20038;-69
2021/11/02 02:25:11;;;;;;;2.47;1.10;;;14.40;62.30;;;;;;6219597;28;20050;-69
2021/11/02 02:28:21;;;;;;;2.63;1.17;;;14.30;62.40;;;;;;6219020;28;20038;-69
2021/11/02 02:31:23;;;;;;;2.53;1.52;;;14.30;62.50;;;;;;6202853;28;20026;-69
2021/11/02 02:34:25;;;;;;;2.70;1.10;;;14.20;62.40;;;;;;6202544;28;20022;-69
2021/11/02 02:37:28;;;;;;;8.30;1.42;;;14.10;62.60;;;;;;6202576;28;20034;-70
2021/11/02 02:40:34;;;;;;;3.00;1.40;;;14.10;62.70;;;;;;6202111;28;20434;-70
2021/11/02 02:43:40;;;;;;;1.88;1.20;;;14.10;62.70;;;;;;6201588;28;20034;-70
2021/11/02 02:46:42;;;;;;;1.98;1.05;;;14.10;62.80;;;;;;6203351;28;20030;-70
2021/11/02 02:49:45;;;;;;;0.73;0.70;;;14.10;62.80;;;;;;6203018;28;20038;-70
2021/11/02 02:52:48;;;;;;;2.47;0.95;;;14.10;62.80;;;;;;6218438;28;20058;-69
2021/11/02 02:55:50;;;;;;;2.28;0.70;;;14.20;62.90;;;;;;6202237;28;20072;-70
2021/11/02 02:58:58;;;;;;;0.73;0.60;;;14.20;62.80;;;;;;6202207;28;20041;-70
2021/11/02 03:01:59;;;;;;;3.13;0.80;;;14.30;62.80;;;;;;6201938;28;20026;-70
2021/11/02 03:05:04;;;;;;;1.25;0.63;;;14.30;62.80;;;;;;6201866;28;20464;-69
2021/11/02 03:08:07;;;;;;;1.63;0.93;;;14.30;62.50;;;;;;6202811;28;20337;-69
2021/11/02 03:11:11;;;;;;;1.23;0.73;;;14.30;62.20;;;;;;6201429;28;20042;-69
2021/11/02 03:14:21;;;;;;;0.82;0.80;;;14.30;62.00;;;;;;6201691;28;20023;-69
2021/11/02 03:17:27;;;;;;;1.88;0.80;;;14.30;61.90;;;;;;6201547;28;20045;-69
2021/11/02 03:43:24;;;;;;;2.15;0.75;;;14.30;61.70;;;;;;6198109;28;20030;-69
2021/11/02 03:51:01;;;;;;;7.22;1.17;;;14.30;61.90;;;;;;6201485;28;20488;-69
2021/11/02 03:57:38;;;;;;;3.17;0.90;;;14.40;61.80;;;;;;6200782;28;20393;-69
2021/11/02 04:01:04;;;;;;;1.38;0.88;;;14.40;62.60;;;;;;6217234;28;20038;-69
2021/11/02 04:24:46;;;;;;;2.25;0.60;;;14.40;61.30;;;;;;6200465;28;20034;-69
2021/11/02 05:08:28;;;;;;;3.67;1.27;;;14.30;63.70;;;;;;6204748;28;20030;-70
2021/11/02 06:01:56;;;;;;;5.45;1.02;;;14.20;64.70;;;;;;6114577;29;20048;-70
2021/11/02 06:28:26;;;;;;;1.65;1.08;;;14.20;64.20;;;;;;6177731;28;20476;-70
2021/11/02 06:31:34;;;;;;;1.65;0.80;;;14.20;64.30;;;;;;6177604;28;20146;-70
2021/11/02 07:10:57;;;;;;;5.32;1.60;;;14.40;63.90;;;;;;6178800;28;20105;-69
2021/11/02 07:15:24;;;;;;;1.27;0.70;;;14.60;63.70;;;;;;6202365;28;20026;-70
2021/11/02 07:18:29;;;;;;;1.02;0.70;;;14.60;63.50;;;;;;6179652;28;20026;-70
2021/11/02 07:21:43;;;;;;;2.45;1.13;;;14.70;63.20;;;;;;6201920;28;20164;-69
2021/11/02 08:49:34;;;;;;;0.85;0.82;;;15.70;59.60;;;;;;6182830;28;20061;-70
2021/11/02 08:52:37;;;;;;;7.90;2.80;;;15.70;59.60;;;;;;6155356;28;20058;-69
2021/11/02 08:55:41;;;;;;;5.78;1.48;;;15.80;59.50;;;;;;6139425;29;20057;-70
2021/11/02 08:58:46;;;;;;;1.65;1.20;;;15.90;59.50;;;;;;6139206;29;20058;-70
2021/11/02 09:01:57;;;;;;;3.92;1.60;;;16.00;59.40;;;;;;6163715;28;20046;-69
2021/11/02 09:05:07;;;;;;;4.03;1.85;;;16.00;59.10;;;;;;6197103;28;20114;-69
2021/11/02 09:08:10;;;;;;;1.42;1.00;;;16.10;59.00;;;;;;6180864;28;20102;-70
2021/11/02 09:11:15;;;;;;;2.78;1.20;;;16.10;58.90;;;;;;6179591;28;20035;-71
2021/11/02 09:14:17;;;;;;;7.65;1.85;;;16.10;58.80;;;;;;6203132;28;20049;-71
2021/11/02 09:17:20;;;;;;;5.43;1.63;;;16.20;59.00;;;;;;6204082;28;20026;-70
2021/11/02 09:20:21;;;;;;;4.72;1.65;;;16.00;59.60;;;;;;6203886;28;20494;-71
2021/11/02 09:23:23;;;;;;;5.22;1.52;;;16.10;59.10;;;;;;6203945;28;20045;-71
2021/11/02 09:26:25;;;;;;;2.60;1.20;;;16.20;59.10;;;;;;6204395;28;20444;-70
2021/11/02 09:29:26;;;;;;;5.35;1.10;;;16.30;58.90;;;;;;6203798;28;20034;-70
2021/11/02 09:32:27;;;;;;;7.85;1.50;;;16.40;58.90;;;;;;6203699;28;20511;-70
2021/11/02 09:35:31;;;;;;;5.22;1.35;;;16.40;58.80;;;;;;6204471;28;20061;-70
2021/11/02 09:38:46;;;;;;;6.65;1.63;;;16.50;58.80;;;;;;6204744;28;20026;-70
2021/11/02 09:42:23;;;;;;;2.92;1.67;;;16.50;58.80;;;;;;6203743;28;20077;-71
2021/11/02 09:45:49;;;;;;;5.55;1.58;;;16.50;58.80;;;;;;6203312;28;20042;-70
2021/11/02 09:49:17;;;;;;;2.75;1.48;;;16.60;59.00;;;;;;6203015;28;20066;-71
2021/11/02 09:52:30;;;;;;;2.15;1.17;;;16.70;58.90;;;;;;6203954;28;20038;-69
2021/11/02 09:55:50;;;;;;;2.55;1.58;;;16.80;58.70;;;;;;6203287;28;20026;-69
2021/11/02 09:59:08;;;;;;;3.88;1.40;;;16.80;58.50;;;;;;6204132;28;20428;-70
2021/11/02 10:02:09;;;;;;;1.38;1.05;;;16.80;58.50;;;;;;6203621;28;20030;-71
2021/11/02 10:05:32;;;;;;;2.03;1.00;;;16.80;58.40;;;;;;6203104;28;20042;-69
2021/11/02 10:08:50;;;;;;;2.58;1.13;;;16.90;58.40;;;;;;6204077;28;20026;-70
2021/11/02 10:12:16;;;;;;;2.30;1.02;;;17.00;58.20;;;;;;6204297;28;20321;-70
2021/11/02 10:15:43;;;;;;;0.93;0.60;;;17.10;57.80;;;;;;6202780;28;20026;-70
2021/11/02 10:19:27;;;;;;;0.47;0.47;;;17.30;57.10;;;;;;6202497;28;20029;-70
2021/11/02 10:22:47;;;;;;;1.67;1.10;;;17.50;56.40;;;;;;6153739;29;20031;-70
2021/11/02 10:26:15;;;;;;;1.50;0.80;;;17.70;55.90;;;;;;6153336;29;20106;-71
2021/11/02 10:29:42;;;;;;;3.10;1.00;;;18.00;55.50;;;;;;6137357;29;20038;-70
2021/11/02 10:32:47;;;;;;;1.00;0.60;;;18.30;54.90;;;;;;6153553;29;20034;-70
2021/11/02 10:36:17;;;;;;;1.55;0.63;;;18.50;53.80;;;;;;6153569;29;20083;-69
2021/11/02 10:39:27;;;;;;;1.00;0.60;;;18.60;53.00;;;;;;6137523;29;20058;-69
2021/11/02 10:42:43;;;;;;;4.80;0.73;;;18.50;52.50;;;;;;6152823;29;20126;-70
2021/11/02 10:45:54;;;;;;;2.67;0.80;;;18.50;52.10;;;;;;6133692;29;20027;-70
2021/11/02 10:49:03;;;;;;;11.18;3.05;;;18.50;52.40;;;;;;6152301;29;20035;-71
2021/11/02 10:52:07;;;;;;;2.17;0.80;;;18.60;52.20;;;;;;6136877;29;20392;-72
2021/11/02 10:55:41;;;;;;;1.25;0.88;;;18.80;51.80;;;;;;6143654;28;20046;-71
2021/11/02 10:58:47;;;;;;;2.55;0.50;;;19.00;51.50;;;;;;6177934;28;20030;-69
2021/11/02 11:01:51;;;;;;;1.48;0.55;;;19.30;50.60;;;;;;6181993;28;20456;-70
2021/11/02 11:04:55;;;;;;;0.20;0.20;;;19.50;49.30;;;;;;6193912;28;20077;-70
2021/11/02 11:08:00;;;;;;;3.15;0.55;;;19.80;48.40;;;;;;6177523;28;20138;-70
2021/11/02 11:11:13;;;;;;;1.60;0.52;;;20.10;47.20;;;;;;6178297;28;20126;-70
2021/11/02 11:14:15;;;;;;;2.47;0.88;;;20.40;46.40;;;;;;6177882;28;20038;-71
2021/11/02 11:17:20;;;;;;;0.85;0.38;;;20.60;46.10;;;;;;6182335;28;20033;-70
2021/11/02 11:20:23;;;;;;;4.22;0.80;;;20.70;45.80;;;;;;6201458;28;20452;-70
2021/11/02 11:23:25;;;;;;;0.80;0.60;;;20.70;45.90;;;;;;6201092;28;20034;-70
2021/11/02 11:26:28;;;;;;;2.58;1.40;;;20.80;45.90;;;;;;6217616;28;20442;-71
2021/11/02 11:29:30;;;;;;;2.85;1.10;;;21.00;45.40;;;;;;6216625;28;20101;-70
2021/11/02 11:32:34;;;;;;;1.95;1.25;;;21.10;44.80;;;;;;6201542;28;20022;-71
2021/11/02 11:35:37;;;;;;;3.80;0.75;;;21.30;44.20;;;;;;6202170;28;20038;-70
2021/11/02 11:38:43;;;;;;;3.22;0.90;;;21.40;44.10;;;;;;6200550;28;20073;-70
2021/11/02 11:41:49;;;;;;;0.90;0.50;;;21.70;43.30;;;;;;6201086;28;20093;-71
2021/11/02 11:44:52;;;;;;;0.55;0.40;;;22.00;42.80;;;;;;6201582;28;20027;-71
2021/11/02 11:48:26;;;;;;;1.08;0.68;;;22.20;41.90;;;;;;6200493;28;20034;-72
2021/11/02 11:51:30;;;;;;;1.40;0.60;;;22.20;41.70;;;;;;6175565;28;20452;-71
2021/11/02 11:54:49;;;;;;;2.78;0.90;;;21.90;41.30;;;;;;6175584;28;20497;-71
2021/11/02 11:58:12;;;;;;;1.17;0.57;;;21.50;41.90;;;;;;6175492;28;20101;-70
2021/11/02 12:01:25;;;;;;;6.30;0.45;;;21.20;42.40;;;;;;6159382;28;20057;-70
2021/11/02 12:04:48;;;;;;;1.67;1.08;;;21.00;42.70;;;;;;6159379;28;20476;-70
2021/11/02 12:08:04;;;;;;;0.75;0.60;;;20.80;43.00;;;;;;6159415;28;20437;-71
2021/11/02 12:11:05;;;;;;;1.52;0.43;;;20.60;43.20;;;;;;6159185;28;20041;-70
2021/11/02 12:14:12;;;;;;;0.50;0.40;;;20.40;43.30;;;;;;6175366;28;20117;-70
2021/11/02 12:17:17;;;;;;;2.55;0.90;;;20.20;43.50;;;;;;6175484;28;20027;-71
2021/11/02 12:20:22;;;;;;;4.05;0.60;;;20.10;43.50;;;;;;6158365;28;20039;-70
2021/11/02 12:23:37;;;;;;;0.47;0.40;;;20.00;43.70;;;;;;6143064;28;20522;-71
2021/11/02 12:26:47;;;;;;;1.40;0.70;;;19.90;43.90;;;;;;6148648;28;20051;-69
2021/11/02 12:29:50;;;;;;;1.15;0.50;;;19.80;44.20;;;;;;6200114;28;20034;-70
2021/11/02 12:32:57;;;;;;;1.13;0.80;;;19.70;44.30;;;;;;6199581;28;20146;-70
2021/11/02 12:36:02;;;;;;;3.03;1.13;;;19.60;44.90;;;;;;6199825;28;20030;-71
2021/11/02 12:39:06;;;;;;;8.77;1.33;;;19.50;45.90;;;;;;6199463;28;20054;-70
2021/11/02 12:42:07;;;;;;;3.35;0.90;;;19.30;46.60;;;;;;6200822;28;20026;-70
2021/11/02 12:45:10;;;;;;;2.25;1.10;;;19.20;47.20;;;;;;6199533;28;20367;-71
2021/11/02 12:48:13;;;;;;;2.70;0.95;;;19.20;47.70;;;;;;6179075;28;20444;-70
2021/11/02 12:51:19;;;;;;;2.75;0.88;;;19.20;47.90;;;;;;6199299;28;20061;-71
2021/11/02 12:54:22;;;;;;;1.17;0.90;;;19.20;47.80;;;;;;6198677;28;20022;-69
2021/11/02 12:57:37;;;;;;;6.72;2.10;;;19.20;47.60;;;;;;6182444;28;20432;-70
2021/11/02 13:00:53;;;;;;;6.20;0.85;;;19.10;47.50;;;;;;6200016;28;20026;-70
2021/11/02 13:03:55;;;;;;;4.88;1.10;;;19.10;47.60;;;;;;6199811;28;20057;-70
2021/11/02 13:06:56;;;;;;;5.35;0.93;;;19.10;48.10;;;;;;6199994;28;20034;-70
2021/11/02 13:09:57;;;;;;;5.50;0.75;;;19.10;47.30;;;;;;6199585;28;20062;-70
2021/11/02 13:13:07;;;;;;;8.07;0.90;;;19.20;47.30;;;;;;6200106;28;20037;-70
2021/11/02 13:16:08;;;;;;;3.58;0.60;;;19.10;47.40;;;;;;6199692;28;20030;-70
2021/11/02 13:19:16;;;;;;;1.65;0.20;;;19.10;47.60;;;;;;6199861;28;20022;-70
2021/11/02 13:22:26;;;;;;;0.73;0.40;;;19.10;46.90;;;;;;6199110;28;20042;-70
2021/11/02 13:25:38;;;;;;;0.60;0.38;;;19.20;46.40;;;;;;6199778;28;20400;-70
2021/11/02 13:28:40;;;;;;;2.25;0.60;;;19.30;45.80;;;;;;6204140;28;20041;-71
2021/11/02 13:31:43;;;;;;;3.45;0.60;;;19.40;45.50;;;;;;6204187;28;20038;-71
2021/11/02 13:34:44;;;;;;;0.77;0.47;;;19.40;45.40;;;;;;6204403;28;20033;-70
2021/11/02 13:37:45;;;;;;;2.08;1.00;;;19.50;45.00;;;;;;6204452;28;20037;-71
2021/11/02 13:40:46;;;;;;;1.13;0.43;;;19.50;45.00;;;;;;6202593;28;20082;-71
2021/11/02 13:43:49;;;;;;;9.65;0.68;;;19.60;45.00;;;;;;6202872;28;20439;-71
2021/11/02 13:46:54;;;;;;;0.75;0.52;;;19.60;44.90;;;;;;6203928;28;20026;-71
2021/11/02 13:49:55;;;;;;;1.85;0.70;;;19.70;44.70;;;;;;6202599;28;20049;-71
2021/11/02 13:52:56;;;;;;;2.05;0.50;;;19.70;44.40;;;;;;6202873;28;20069;-71
2021/11/02 13:55:57;;;;;;;1.48;0.22;;;19.80;43.90;;;;;;6204022;28;20061;-71
2021/11/02 13:58:59;;;;;;;1.27;0.30;;;19.80;43.50;;;;;;6204114;28;20054;-70
2021/11/02 14:02:00;;;;;;;0.38;0.30;;;19.90;42.90;;;;;;6202488;28;20034;-72
2021/11/02 14:05:01;;;;;;;0.45;0.25;;;19.90;42.50;;;;;;6202678;28;20031;-71
2021/11/02 14:08:03;;;;;;;1.77;0.60;;;19.90;42.60;;;;;;6202449;28;20039;-72
2021/11/02 14:11:19;;;;;;;1.13;0.57;;;19.80;42.40;;;;;;6203694;28;20026;-72
2021/11/02 14:14:35;;;;;;;2.08;0.90;;;19.80;42.30;;;;;;6202740;28;20113;-70
2021/11/02 14:17:40;;;;;;;0.90;0.52;;;19.70;42.30;;;;;;6202423;28;20124;-70
2021/11/02 14:20:49;;;;;;;0.68;0.40;;;19.60;42.50;;;;;;6203161;28;20101;-70
2021/11/02 14:24:03;;;;;;;0.10;0.10;;;19.60;42.50;;;;;;6219741;28;20065;-70
2021/11/02 14:27:08;;;;;;;0.20;0.10;;;19.50;42.30;;;;;;6186337;28;20031;-70
2021/11/02 14:30:20;;;;;;;10.82;3.00;;;19.50;42.00;;;;;;6218349;28;20034;-70
2021/11/02 14:33:21;;;;;;;1.45;0.60;;;19.40;41.90;;;;;;6202288;28;20027;-70
2021/11/02 14:36:38;;;;;;;1.48;0.98;;;19.30;42.10;;;;;;6201929;28;20116;-70
2021/11/02 14:40:04;;;;;;;1.15;0.47;;;19.20;42.20;;;;;;6202043;28;20412;-71
2021/11/02 14:43:17;;;;;;;7.70;1.00;;;19.10;42.10;;;;;;6202702;28;20034;-70
2021/11/02 14:46:20;;;;;;;1.75;0.52;;;19.10;42.10;;;;;;6201838;28;20069;-71
2021/11/02 14:49:30;;;;;;;1.52;0.50;;;19.10;42.40;;;;;;6201433;28;20030;-70
2021/11/02 14:52:36;;;;;;;0.57;0.30;;;19.00;42.30;;;;;;6202076;28;20069;-70
2021/11/02 14:56:01;;;;;;;8.05;1.20;;;19.00;42.40;;;;;;6200643;28;20515;-69
2021/11/02 14:59:04;;;;;;;4.13;0.52;;;18.90;42.40;;;;;;6194558;28;20038;-70
2021/11/02 15:02:07;;;;;;;2.03;0.70;;;18.90;42.40;;;;;;6183098;28;20098;-71
2021/11/02 15:05:11;;;;;;;2.03;0.68;;;18.90;42.50;;;;;;6201599;28;20464;-71
2021/11/02 15:08:13;;;;;;;1.60;0.88;;;18.90;42.60;;;;;;6201159;28;20415;-71
2021/11/02 15:11:17;;;;;;;2.65;0.60;;;18.90;42.80;;;;;;6201136;28;20042;-72
2021/11/02 15:14:22;;;;;;;1.23;0.63;;;18.90;42.70;;;;;;6201503;28;20030;-71
2021/11/02 15:17:23;;;;;;;1.15;0.57;;;18.90;42.80;;;;;;6201412;28;20110;-70
2021/11/02 15:20:25;;;;;;;8.38;0.85;;;18.90;42.80;;;;;;6200829;28;20030;-71
2021/11/02 15:23:46;;;;;;;1.00;0.45;;;18.90;42.70;;;;;;6201580;28;20030;-70
2021/11/02 15:27:01;;;;;;;0.90;0.47;;;18.90;42.50;;;;;;6201109;28;20035;-70
2021/11/02 15:30:20;;;;;;;0.20;0.20;;;18.90;42.10;;;;;;6200822;28;20467;-71
2021/11/02 15:33:25;;;;;;;;;;;18.90;42.20;;;;;;6201279;28;20031;-70
2021/11/02 15:36:28;;;;;;;4.28;1.33;;;19.00;42.20;;;;;;6201614;28;19921;-71
2021/11/02 15:39:29;;;;;;;3.80;0.85;;;18.90;42.20;;;;;;6201468;28;20050;-70
2021/11/02 15:42:32;;;;;;;3.70;2.13;;;19.00;41.80;;;;;;6200565;28;20452;-71
2021/11/02 15:45:35;;;;;;;8.02;2.60;;;19.00;41.90;;;;;;6201422;28;20117;-71
2021/11/02 15:48:36;;;;;;;4.82;1.65;;;19.00;41.90;;;;;;6200102;28;20026;-71
2021/11/02 15:51:40;;;;;;;3.90;1.27;;;18.90;41.90;;;;;;6201178;28;20038;-69
2021/11/02 15:54:46;;;;;;;2.05;1.25;;;18.90;42.00;;;;;;6200448;28;20080;-70
2021/11/02 15:57:54;;;;;;;4.07;2.20;;;18.90;42.20;;;;;;6200517;28;20054;-70
2021/11/02 16:00:55;;;;;;;8.95;3.50;;;18.90;42.20;;;;;;6201746;28;20030;-71
2021/11/02 16:04:17;;;;;;;6.03;2.75;;;18.90;42.00;;;;;;6200978;28;20034;-70
2021/11/02 16:07:21;;;;;;;20.70;8.43;;;18.80;41.90;;;;;;6201526;28;20411;-69
2021/11/02 16:10:31;;;;;;;11.75;5.00;;;18.80;41.90;;;;;;6200834;28;20087;-70
2021/11/02 16:13:32;;;;;;;3.20;1.40;;;18.80;42.00;;;;;;6168303;28;20034;-71
2021/11/02 16:16:34;;;;;;;1.38;1.02;;;18.80;42.00;;;;;;6199993;28;20105;-70
2021/11/02 16:19:35;;;;;;;7.63;1.75;;;18.80;42.20;;;;;;6199672;28;20364;-70
2021/11/02 16:22:51;;;;;;;11.43;2.00;;;18.80;42.10;;;;;;6200090;28;20479;-71
2021/11/02 16:25:57;;;;;;;8.27;2.28;;;18.80;42.30;;;;;;6183935;28;20088;-71
2021/11/02 16:29:15;;;;;;;2.53;1.60;;;18.70;42.40;;;;;;6201357;28;20023;-70
2021/11/02 16:32:28;;;;;;;3.15;0.82;;;18.60;42.70;;;;;;6200280;28;20035;-71
2021/11/02 16:35:42;;;;;;;5.00;1.42;;;18.60;42.90;;;;;;6200207;28;20030;-70
2021/11/02 16:38:43;;;;;;;5.55;1.52;;;18.40;42.90;;;;;;6200659;28;20089;-70
2021/11/02 16:41:47;;;;;;;9.48;3.50;;;18.40;43.20;;;;;;6200465;28;20089;-70
2021/11/02 16:44:49;;;;;;;12.05;4.30;;;18.40;43.40;;;;;;6199785;28;20062;-71
2021/11/02 16:47:57;;;;;;;11.75;2.70;;;18.30;43.80;;;;;;6199619;28;20046;-71
2021/11/02 16:50:58;;;;;;;13.85;3.40;;;18.20;44.20;;;;;;6189723;28;20026;-71
2021/11/02 16:54:10;;;;;;;10.85;1.48;;;18.10;44.60;;;;;;6199279;28;20030;-71
2021/11/02 16:57:18;;;;;;;4.20;1.65;;;18.10;45.10;;;;;;6200571;28;20026;-71
2021/11/02 17:00:27;;;;;;;5.63;1.35;;;18.00;45.50;;;;;;6199436;28;20041;-71
2021/11/02 17:03:28;;;;;;;2.25;1.00;;;17.90;45.80;;;;;;6179652;28;20407;-70
2021/11/02 17:06:32;;;;;;;2.55;0.88;;;17.90;45.80;;;;;;6179921;28;20030;-70
2021/11/02 17:09:33;;;;;;;37.60;16.77;;;17.80;45.70;;;;;;6199531;28;20034;-71
2021/11/02 17:12:40;;;;;;;18.20;7.65;;;17.80;45.80;;;;;;6219998;28;20023;-70
2021/11/02 17:15:44;;;;;;;16.48;6.15;;;17.80;46.00;;;;;;6203351;28;20036;-69
2021/11/02 17:18:48;;;;;;;14.05;5.75;;;17.70;46.40;;;;;;6204190;28;20018;-71
2021/11/02 17:21:52;;;;;;;10.23;3.45;;;17.70;46.70;;;;;;6204336;28;20022;-70
2021/11/02 17:24:53;;;;;;;3.30;1.90;;;17.60;47.20;;;;;;6203363;28;20088;-70
2021/11/02 17:27:55;;;;;;;1.75;1.23;;;17.60;47.50;;;;;;6204361;28;20022;-70
2021/11/02 17:30:59;;;;;;;2.35;1.10;;;17.50;47.70;;;;;;6204126;28;20030;-70
2021/11/02 17:34:00;;;;;;;3.53;1.42;;;17.50;48.00;;;;;;6203144;28;20045;-71
2021/11/02 17:37:06;;;;;;;3.90;1.17;;;17.40;48.40;;;;;;6203227;28;20030;-70
2021/11/02 17:40:07;;;;;;;2.70;1.27;;;17.40;48.60;;;;;;6203293;28;20054;-71
2021/11/02 17:43:08;;;;;;;4.55;2.30;;;17.30;48.60;;;;;;6202971;28;20045;-71
2021/11/02 17:46:11;;;;;;;5.18;1.48;;;17.30;48.70;;;;;;6203855;28;20363;-71
2021/11/02 17:49:12;;;;;;;3.72;1.10;;;17.30;49.50;;;;;;6202422;28;20042;-70
2021/11/02 17:52:13;;;;;;;2.38;1.10;;;17.20;48.70;;;;;;6204134;28;20022;-70
2021/11/02 17:55:16;;;;;;;3.75;1.20;;;17.20;48.40;;;;;;6202884;28;20452;-71
2021/11/02 17:58:22;;;;;;;6.57;1.85;;;17.20;48.40;;;;;;6203969;28;20033;-70
2021/11/02 18:01:24;;;;;;;3.58;1.42;;;17.20;48.70;;;;;;6203707;28;20389;-70
2021/11/02 18:04:29;;;;;;;20.80;8.10;;;17.20;48.40;;;;;;6202093;28;20027;-70
2021/11/02 18:07:30;;;;;;;5.30;2.38;;;17.20;48.50;;;;;;6202454;28;20448;-71
2021/11/02 18:10:33;;;;;;;5.03;2.00;;;17.20;48.90;;;;;;6202099;28;20377;-70
2021/11/02 18:13:35;;;;;;;2.55;1.45;;;17.10;49.20;;;;;;6202036;28;20037;-70
2021/11/02 18:16:38;;;;;;;3.17;1.17;;;17.10;49.40;;;;;;6203573;28;20173;-71
2021/11/02 18:19:40;;;;;;;8.70;2.47;;;17.10;49.60;;;;;;6202020;28;20022;-71
2021/11/02 18:22:43;;;;;;;17.15;6.93;;;17.10;49.80;;;;;;6202246;28;20067;-71
2021/11/02 18:25:44;;;;;;;11.43;3.50;;;17.00;50.00;;;;;;6203400;28;20349;-71
2021/11/02 18:28:45;;;;;;;15.48;5.53;;;17.00;50.10;;;;;;6201874;28;20109;-71
2021/11/02 18:31:48;;;;;;;9.57;3.22;;;16.90;50.10;;;;;;6202114;28;20042;-71
2021/11/02 18:34:54;;;;;;;26.25;6.20;;;16.90;50.10;;;;;;6201991;28;20050;-70
2021/11/02 18:37:56;;;;;;;28.02;9.95;;;16.90;50.10;;;;;;6203181;28;20026;-70
2021/11/02 18:40:58;;;;;;;28.05;12.20;;;16.90;50.30;;;;;;6202709;28;20125;-70
2021/11/02 18:43:59;;;;;;;11.93;3.60;;;16.90;50.40;;;;;;6202600;28;20420;-70
2021/11/02 18:47:01;;;;;;;26.30;8.13;;;16.90;50.50;;;;;;6202318;28;20036;-70
2021/11/02 18:50:03;;;;;;;56.95;18.60;;;16.90;50.70;;;;;;6201924;28;20034;-70
2021/11/02 18:53:04;;;;;;;16.20;6.65;;;16.90;51.00;;;;;;6202426;28;20340;-69
2021/11/02 18:56:06;;;;;;;36.92;13.48;;;16.80;51.30;;;;;;6200891;28;20073;-70
2021/11/02 18:59:07;;;;;;;9.18;3.80;;;16.80;51.70;;;;;;6202032;28;20440;-69
2021/11/02 19:02:08;;;;;;;6.18;2.80;;;16.70;51.80;;;;;;6201861;28;20040;-70
2021/11/02 19:05:10;;;;;;;17.27;3.50;;;16.70;52.10;;;;;;6201090;28;20122;-69
2021/11/02 19:08:16;;;;;;;6.70;1.90;;;16.60;52.20;;;;;;6199015;28;20077;-70
2021/11/02 19:11:16;;;;;;;4.20;2.03;;;16.60;52.30;;;;;;6184872;28;20030;-70
2021/11/02 19:14:17;;;;;;;7.75;2.00;;;16.60;52.40;;;;;;6201188;28;20104;-70
2021/11/02 19:17:19;;;;;;;5.30;1.73;;;16.50;52.60;;;;;;6201326;28;20072;-69
2021/11/02 19:20:21;;;;;;;6.38;2.33;;;16.50;52.50;;;;;;6201967;28;20022;-70
2021/11/02 19:23:22;;;;;;;5.25;2.47;;;16.50;52.50;;;;;;6200102;28;20050;-71
2021/11/02 19:26:23;;;;;;;8.57;2.60;;;16.50;52.40;;;;;;6201980;28;20041;-70
2021/11/02 19:29:24;;;;;;;3.83;2.20;;;16.50;52.40;;;;;;6201336;28;20038;-69
2021/11/02 19:32:25;;;;;;;8.10;3.30;;;16.50;52.10;;;;;;6201478;28;20034;-70
2021/11/02 19:35:27;;;;;;;7.00;3.28;;;16.50;51.90;;;;;;6201585;28;20061;-70
2021/11/02 19:38:27;;;;;;;12.52;4.65;;;16.50;51.70;;;;;;6184249;28;20455;-70
2021/11/02 19:41:28;;;;;;;8.80;3.45;;;16.50;51.80;;;;;;6200515;28;20034;-69
2021/11/02 19:44:33;;;;;;;7.65;2.20;;;16.50;51.80;;;;;;6201298;28;20436;-70
2021/11/02 19:47:34;;;;;;;6.93;2.80;;;16.60;51.40;;;;;;6201340;28;20414;-70
2021/11/02 19:50:36;;;;;;;10.65;4.38;;;16.50;50.90;;;;;;6182494;28;20031;-69
2021/11/02 19:53:43;;;;;;;5.50;2.42;;;16.60;50.90;;;;;;6177248;28;20445;-69
2021/11/02 19:56:44;;;;;;;5.03;2.13;;;16.60;50.90;;;;;;6177287;28;20027;-69
2021/11/02 19:59:46;;;;;;;13.27;5.28;;;16.60;50.60;;;;;;6177235;28;20094;-70
2021/11/02 20:02:47;;;;;;;15.38;7.07;;;16.70;49.90;;;;;;6187736;28;20056;-71
2021/11/02 20:05:50;;;;;;;6.97;3.53;;;16.70;49.90;;;;;;6183815;28;20121;-70
2021/11/02 20:08:55;;;;;;;12.15;4.65;;;16.70;50.00;;;;;;6201355;28;20372;-71
2021/11/02 20:12:04;;;;;;;9.55;4.25;;;16.70;50.00;;;;;;6200668;28;20416;-71
2021/11/02 20:15:05;;;;;;;7.45;3.15;;;16.70;50.30;;;;;;6200027;28;20125;-70
2021/11/02 20:18:08;;;;;;;8.00;2.92;;;16.70;50.60;;;;;;6200964;28;20348;-71
2021/11/02 20:21:10;;;;;;;8.55;4.80;;;16.70;51.00;;;;;;6199551;28;20030;-71
2021/11/02 20:24:11;;;;;;;9.43;3.45;;;16.60;51.30;;;;;;6200940;28;20114;-70
2021/11/02 20:27:16;;;;;;;8.13;4.00;;;16.60;51.60;;;;;;6201133;28;20349;-70
2021/11/02 20:30:19;;;;;;;7.00;2.72;;;16.50;52.00;;;;;;6215977;28;20034;-71
2021/11/02 20:33:21;;;;;;;8.30;4.28;;;16.40;52.30;;;;;;6200713;28;20022;-71
2021/11/02 20:36:26;;;;;;;10.68;4.85;;;16.30;52.60;;;;;;6204428;28;20030;-70
2021/11/02 20:39:33;;;;;;;6.40;2.90;;;16.20;53.00;;;;;;6204766;28;20042;-71
2021/11/02 20:42:43;;;;;;;9.55;3.75;;;16.20;53.20;;;;;;6205634;28;20053;-70
2021/11/02 20:45:44;;;;;;;10.52;3.33;;;16.10;53.40;;;;;;6205695;28;20089;-70
2021/11/02 20:49:08;;;;;;;9.23;3.63;;;16.10;53.60;;;;;;6204198;28;20084;-70
2021/11/02 20:52:09;;;;;;;6.90;2.55;;;16.00;53.60;;;;;;6205283;28;20030;-70
2021/11/02 20:55:11;;;;;;;6.18;2.80;;;16.00;53.70;;;;;;6205478;28;20026;-70
2021/11/02 20:58:11;;;;;;;7.90;2.42;;;15.90;53.80;;;;;;6202461;28;20053;-71